• Join FlightAware (Why Join?)
  • Login
  • US Flag 
10:31AM EDT


 

Airport Tracker/Info


-or-


 

Live Flight TrackerFlight Track Log ✈ N700QA ✈ 07-Jun-2013 ✈ KONT - KLAS

Flight Track Log - Related Links

Times and Time Zones

All times are in EDT time to prevent confusion due to time zone crossing. See the N700QA flight status page for this flight to view local times or setup timezone preferences in your user account.

Time Position Orientation Groundspeed Altitude Reporting Facility
EDT Latitude Longitude Course Direction KTS MPH feet Rate Location/Type
07:35PM 34.0542 -117.6211 278° West 170 196 23,000  Level Los Angeles Center
07:36PM 34.0625 -117.6944 278° West 210 242 3,900 -8,280 Descending Los Angeles Center
07:37PM 34.0758 -117.7756 281° West 222 255 5,900 2,220 Climbing Los Angeles Center
07:38PM 34.1211 -117.8389 311° West 253 291 8,500 2,280 Climbing Los Angeles Center
07:39PM 34.1728 -117.9011 315° West 262 302 10,700 2,280 Climbing Los Angeles Center
07:40PM 34.2319 -117.9608 320° Northwest 275 316 13,300 2,460 Climbing Los Angeles Center
07:41PM 34.2972 -117.9094 33° Northeast 257 296 15,900 2,220 Climbing Los Angeles Center
07:42PM 34.3378 -117.8342 57° Northeast 263 303 17,900 1,920 Climbing Los Angeles Center
07:43PM 34.3764 -117.7544 60° Northeast 272 313 19,900 1,860 Climbing Los Angeles Center
07:44PM 34.4214 -117.6675 58° Northeast 287 330 21,800 1,380 Climbing Los Angeles Center
07:45PM 34.4633 -117.5853 58° Northeast 291 335 22,800 840 Climbing Los Angeles Center
07:46PM 34.5094 -117.4950 58° Northeast 317 365 23,600 960 Climbing Los Angeles Center
07:47PM 34.5567 -117.3989 59° Northeast 331 381 24,900 660 Climbing Los Angeles Center
07:48PM 34.5861 -117.2906 72° East 349 402 25,000  Climbing Los Angeles Center
07:49PM 34.5819 -117.1481 92° East 354 407 25,000  Level Los Angeles Center
07:50PM 34.6114 -117.0425 71° East 340 391 25,000  Level Los Angeles Center
07:51PM 34.6814 -116.9622 43° Northeast 348 400 25,000  Level Los Angeles Center
07:52PM 34.7475 -116.8778 46° Northeast 347 399 25,000  Level Los Angeles Center
07:54PM 34.8108 -116.7878 49° Northeast 350 403 25,000  Level Los Angeles Center
07:55PM 34.8892 -116.6811 48° Northeast 353 406 25,000  Level Los Angeles Center
07:56PM 34.9556 -116.5911 48° Northeast 356 410 25,000 -180 Level Los Angeles Center
07:57PM 35.0231 -116.5022 47° Northeast 359 413 24,700 -360 Descending Los Angeles Center
07:58PM 35.0978 -116.4153 44° Northeast 368 423 24,300 -360 Descending Los Angeles Center
07:59PM 35.1675 -116.3239 47° Northeast 368 423 24,000 -420 Descending Los Angeles Center
08:00PM 35.2514 -116.2200 45° Northeast 361 415 23,500 -960 Descending Los Angeles Center
08:01PM 35.3317 -116.1183 46° Northeast 348 400 21,900 -1,320 Descending Los Angeles Center
08:02PM 35.3939 -116.0417 45° Northeast 348 400 20,600 -1,380 Descending Los Angeles Center
08:03PM 35.4611 -115.9564 46° Northeast 331 381 19,100 -1,680 Descending Los Angeles Center
08:03PM 35.4861 -115.9281 43° Northeast 312 359 18,400 -2,040 Descending Los Angeles Center
08:04PM 35.5164 -115.8869 48° Northeast 308 354 17,400 -1,800 Descending Los Angeles Center
08:05PM 35.5789 -115.8064 46° Northeast 303 349 15,500 -1,860 Descending Los Angeles Center
08:06PM 35.6364 -115.7325 46° Northeast 301 346 13,700 -1,200 Descending Los Angeles Center
08:07PM 35.6906 -115.6622 46° Northeast 290 334 13,100 -420 Descending Los Angeles Center
08:07PM 35.6986 -115.6506 50° Northeast 295 339 13,100 -120 Level Los Angeles Center
08:08PM 35.7525 -115.5894 43° Northeast 309 356 13,000 -120 Descending Los Angeles Center
08:08PM 35.7886 -115.5772 15° North 296 341 13,000  Level Los Angeles Center
08:09PM 35.8283 -115.5808 356° North 273 314 13,000  Level Los Angeles Center
08:09PM 35.8694 -115.5789 North 272 313 13,000 -120 Level Los Angeles Center
08:10PM 35.9164 -115.5789 360° North 264 304 12,900 -480 Descending Los Angeles Center
08:11PM 35.9433 -115.5756 North 266 306 12,500 -600 Descending Los Angeles Center
08:11PM 35.9833 -115.5786 356° North 233 268 12,300 -600 Descending Los Angeles Center
08:12PM 36.0122 -115.5758 North 232 267 11,900 -900 Descending Los Angeles Center
08:12PM 36.0411 -115.5464 39° Northeast 214 246 11,300 -600 Descending Los Angeles Center
08:13PM 36.0408 -115.5469 238° Southwest 209 241 11,300 -240 Level Los Angeles Center
08:13PM 36.0375 -115.4892 94° East 201 231 11,100 -240 Descending Los Angeles Center
08:14PM 36.0358 -115.4636 95° East 206 237 11,100 -660 Level Los Angeles Center
08:14PM 36.0333 -115.4003 93° East 213 245 10,300 -1,080 Descending Los Angeles Center
08:15PM 36.0328 -115.3747 92° East 211 243 10,000 -1,020 Descending Los Angeles Center
08:15PM 36.0297 -115.3325 95° East 227 261 9,500 -900 Descending Los Angeles Center
08:16PM 36.0281 -115.2958 93° East 220 253 9,100 -480 Descending Los Angeles Center
08:16PM 36.0231 -115.2522 98° East 220 253 9,000 -300 Descending Los Angeles Center
08:17PM 36.0231 -115.2214 90° East 222 255 8,800 -600 Descending Los Angeles Center
08:17PM 36.0194 -115.1761 96° East 210 242 8,400 -540 Descending Los Angeles Center
08:18PM 36.0181 -115.1514 94° East 215 247 8,300 -420 Descending Los Angeles Center
08:18PM 36.0156 -115.1083 94° East 201 231 8,000 -300 Descending Los Angeles Center
08:19PM 36.0133 -115.0831 96° East 206 237 8,000  Level Los Angeles Center
08:19PM 36.0089 -115.0389 97° East 205 236 8,000  Level Los Angeles Center
08:20PM 36.0083 -115.0122 91° East 206 237 8,000 60 Level Los Angeles Center
08:20PM 36.0389 -114.9969 22° Northeast 209 241 8,100  Climbing Los Angeles Center
08:21PM 36.0647 -115.0047 346° North 208 239 8,000 -600 Descending Los Angeles Center
08:21PM 36.0933 -115.0189 338° Northwest 205 236 7,500 -1,020 Descending Los Angeles Center
08:22PM 36.1189 -115.0089 18° North 206 237 7,000 -900 Descending Los Angeles Center
08:22PM 36.1422 -115.0053 North 182 209 6,600 -780 Descending Los Angeles Center
08:23PM 36.1625 -115.0203 329° Northwest 189 217 6,200 -840 Descending Los Angeles Center
08:23PM 36.1650 -115.0508 276° West 173 199 5,800 -1,080 Descending Los Angeles Center
08:24PM 36.1644 -115.0775 269° West 174 200 5,100 -1,200 Descending Los Angeles Center
08:24PM 36.1531 -115.1056 243° Southwest 170 196 4,700 -1,260 Descending Los Angeles Center
08:25PM 36.1411 -115.1283 237° Southwest 169 194 3,800 -1,620 Descending Los Angeles Center
08:25PM 36.1164 -115.1442 207° Southwest 151 174 2,900 -1,320 Descending Los Angeles Center
08:26PM 36.1042 -115.1506 203° Southwest 156 180 2,200 -900 Descending Los Angeles Center
08:28PM 36.0801 -115.1523 219° Southwest  Level Estimated